createdAt,value
2023-01-21T00:01:20.139Z,9.63
2023-01-21T00:03:48.505Z,11.27
2023-01-21T00:06:18.279Z,8.55
2023-01-21T00:08:46.543Z,10.07
2023-01-21T00:11:16.348Z,10.52
2023-01-21T00:13:45.479Z,10.85
2023-01-21T00:16:14.230Z,9.27
2023-01-21T00:18:42.609Z,12.80
2023-01-21T00:21:11.163Z,12.63
2023-01-21T00:23:41.260Z,9.45
2023-01-21T00:26:11.823Z,17.90
2023-01-21T00:31:11.401Z,10.95
2023-01-21T00:33:39.812Z,9.15
2023-01-21T00:36:10.062Z,10.50
2023-01-21T00:38:38.457Z,9.82
2023-01-21T00:41:10.223Z,15.50
2023-01-21T00:43:39.436Z,11.48
2023-01-21T00:46:07.841Z,8.82
2023-01-21T00:48:36.152Z,10.02
2023-01-21T00:51:04.681Z,10.68
2023-01-21T00:53:34.275Z,12.18
2023-01-21T00:56:03.624Z,12.50
2023-01-21T00:58:33.528Z,13.10
2023-01-21T01:01:03.386Z,13.95
2023-01-21T01:03:32.267Z,10.85
2023-01-21T01:06:04.473Z,15.30
2023-01-21T01:08:32.852Z,14.05
2023-01-21T01:11:01.259Z,12.57
2023-01-21T01:13:30.016Z,14.13
2023-01-21T01:16:00.281Z,15.13
2023-01-21T01:18:29.294Z,15.07
2023-01-21T01:20:58.054Z,15.40
2023-01-21T01:23:26.604Z,16.67
2023-01-21T01:25:58.844Z,15.13
2023-01-21T01:28:27.163Z,16.45
2023-01-21T01:30:55.622Z,14.07
2023-01-21T01:33:25.444Z,15.50
2023-01-21T01:35:53.831Z,14.77
2023-01-21T01:38:23.609Z,16.55
2023-01-21T01:40:53.287Z,17.40
2023-01-21T01:43:24.454Z,14.43
2023-01-21T01:45:53.300Z,13.88
2023-01-21T01:48:25.780Z,15.48
2023-01-21T01:50:54.441Z,11.10
2023-01-21T01:53:22.736Z,13.65
2023-01-21T01:55:51.111Z,8.65
2023-01-21T01:58:20.740Z,9.57
2023-01-21T02:00:49.479Z,11.70
2023-01-21T02:03:35.860Z,7.45
2023-01-21T02:06:05.835Z,9.07
2023-01-21T02:08:36.350Z,9.32
2023-01-21T02:13:35.989Z,12.40
2023-01-21T02:16:19.233Z,9.63
2023-01-21T02:18:51.211Z,11.82
2023-01-21T02:21:48.109Z,16.30
2023-01-21T02:24:46.732Z,13.32
2023-01-21T02:27:33.368Z,11.45
2023-01-21T02:30:44.956Z,15.30
2023-01-21T02:33:31.602Z,12.13
2023-01-21T02:36:08.535Z,15.73
2023-01-21T02:38:42.195Z,13.32
2023-01-21T02:41:18.188Z,6.35
2023-01-21T02:43:51.633Z,12.38
2023-01-21T02:46:23.634Z,8.00
2023-01-21T02:48:57.752Z,9.05
2023-01-21T02:51:26.036Z,9.48
2023-01-21T02:53:54.378Z,10.82
2023-01-21T02:56:25.234Z,7.50
2023-01-21T02:58:57.325Z,14.73
2023-01-21T03:01:32.176Z,16.75
2023-01-21T03:04:24.911Z,11.90
2023-01-21T03:06:59.962Z,14.45
2023-01-21T03:09:30.363Z,12.23
2023-01-21T03:12:05.734Z,13.43
2023-01-21T03:14:56.502Z,10.00
2023-01-21T03:20:04.389Z,9.70
2023-01-21T03:22:35.706Z,13.75
2023-01-21T03:25:04.410Z,13.02
2023-01-21T03:27:34.195Z,11.65
2023-01-21T03:30:05.710Z,12.45
2023-01-21T03:32:35.684Z,10.43
2023-01-21T03:35:07.555Z,13.40
2023-01-21T03:37:40.407Z,7.85
2023-01-21T03:40:15.646Z,12.95
2023-01-21T03:42:44.267Z,11.95
2023-01-21T03:45:13.277Z,14.18
2023-01-21T03:47:43.916Z,12.40
2023-01-21T03:50:16.322Z,12.25
2023-01-21T03:52:45.589Z,16.60
2023-01-21T03:55:15.315Z,16.30
2023-01-21T03:57:43.709Z,16.60
2023-01-21T04:00:13.513Z,11.13
2023-01-21T04:02:41.830Z,12.63
2023-01-21T04:05:10.514Z,14.60
2023-01-21T04:07:40.223Z,10.43
2023-01-21T04:10:10.096Z,14.00
2023-01-21T04:12:38.924Z,8.13
2023-01-21T04:15:08.667Z,14.75
2023-01-21T04:17:37.015Z,13.03
2023-01-21T04:20:06.229Z,14.38
2023-01-21T04:22:34.574Z,9.80
2023-01-21T04:25:05.283Z,12.10
2023-01-21T04:27:33.571Z,9.35
2023-01-21T04:30:01.861Z,15.45
2023-01-21T04:32:30.231Z,14.50
2023-01-21T04:34:58.517Z,17.02
2023-01-21T04:37:26.818Z,17.30
2023-01-21T04:39:55.150Z,16.02
2023-01-21T04:42:25.003Z,14.00
2023-01-21T04:44:53.288Z,17.08
2023-01-21T04:47:21.718Z,15.45
2023-01-21T04:49:50.032Z,13.50
2023-01-21T04:52:18.329Z,13.80
2023-01-21T04:54:46.644Z,14.45
2023-01-21T04:57:15.044Z,16.40
2023-01-21T04:59:44.693Z,13.73
2023-01-21T05:02:12.997Z,12.37
2023-01-21T05:04:41.310Z,15.95
2023-01-21T05:07:11.732Z,14.85
2023-01-21T05:09:40.012Z,15.82
2023-01-21T05:12:08.823Z,15.38
2023-01-21T05:14:37.304Z,12.00
2023-01-21T05:17:07.031Z,12.27
2023-01-21T05:19:35.409Z,9.70
2023-01-21T05:22:03.747Z,10.07
2023-01-21T05:24:32.228Z,10.50
2023-01-21T05:27:00.512Z,11.88
2023-01-21T05:29:28.895Z,10.80
2023-01-21T05:31:57.193Z,10.90
2023-01-21T05:34:26.939Z,12.77
2023-01-21T05:36:55.273Z,8.40
2023-01-21T05:39:23.611Z,8.63
2023-01-21T05:41:51.918Z,9.48
2023-01-21T05:44:20.256Z,7.95
2023-01-21T05:46:48.568Z,9.88
2023-01-21T05:49:16.997Z,8.10
2023-01-21T05:51:46.713Z,9.10
2023-01-21T05:54:15.036Z,11.02
2023-01-21T05:56:43.347Z,11.73
2023-01-21T05:59:11.820Z,9.43
2023-01-21T06:01:40.127Z,11.82
2023-01-21T06:04:08.360Z,11.05
2023-01-21T06:06:36.666Z,9.02
2023-01-21T06:09:06.373Z,10.60
2023-01-21T06:11:34.667Z,9.07
2023-01-21T06:14:03.096Z,11.00
2023-01-21T06:16:31.419Z,9.68
2023-01-21T06:19:00.192Z,8.48
2023-01-21T06:21:28.448Z,14.35
2023-01-21T06:23:57.397Z,5.80
2023-01-21T06:26:27.329Z,13.30
2023-01-21T06:28:56.757Z,7.85
2023-01-21T06:31:25.326Z,6.72
2023-01-21T06:33:53.729Z,9.85
2023-01-21T06:36:22.006Z,9.50
2023-01-21T06:38:50.261Z,14.73
2023-01-21T06:41:18.512Z,14.43
2023-01-21T06:43:48.149Z,7.45
2023-01-21T06:46:16.462Z,12.00
2023-01-21T06:48:44.862Z,14.30
2023-01-21T06:51:13.207Z,13.77
2023-01-21T06:53:41.538Z,8.32
2023-01-21T06:56:09.787Z,14.55
2023-01-21T06:58:38.099Z,12.77
2023-01-21T07:01:07.878Z,11.95
2023-01-21T07:03:36.165Z,13.60
2023-01-21T07:06:04.504Z,15.45
2023-01-21T07:08:32.827Z,13.35
2023-01-21T07:11:01.150Z,14.32
2023-01-21T07:13:29.405Z,13.07
2023-01-21T07:16:00.834Z,14.35
2023-01-21T07:18:30.515Z,13.82
2023-01-21T07:20:58.865Z,11.93
2023-01-21T07:23:27.199Z,13.30
2023-01-21T07:25:55.505Z,13.50
2023-01-21T07:28:23.814Z,13.38
2023-01-21T07:30:52.524Z,13.63
2023-01-21T07:33:20.872Z,14.27
2023-01-21T07:35:50.813Z,13.32
2023-01-21T07:38:19.146Z,13.50
2023-01-21T07:40:49.027Z,14.63
2023-01-21T07:43:17.555Z,13.98
2023-01-21T07:45:46.006Z,11.05
2023-01-21T07:48:14.416Z,10.90
2023-01-21T07:50:42.700Z,12.93
2023-01-21T07:53:13.287Z,11.23
2023-01-21T07:58:10.752Z,8.38
2023-01-21T08:00:39.153Z,9.50
2023-01-21T08:03:07.472Z,11.95
2023-01-21T08:05:35.990Z,14.65
2023-01-21T08:08:04.306Z,14.25
2023-01-21T08:10:33.978Z,13.13
2023-01-21T08:13:03.801Z,14.20
2023-01-21T08:15:32.076Z,8.13
2023-01-21T08:18:00.433Z,9.13
2023-01-21T08:20:28.917Z,8.60
2023-01-21T08:23:00.955Z,10.07
2023-01-21T08:25:29.286Z,8.88
2023-01-21T08:27:59.689Z,9.98
2023-01-21T08:30:28.064Z,7.75
2023-01-21T08:32:56.328Z,9.90
2023-01-21T08:35:24.746Z,8.70
2023-01-21T08:37:55.574Z,9.48
2023-01-21T08:40:25.869Z,7.30
2023-01-21T08:42:54.141Z,7.25
2023-01-21T08:45:23.829Z,10.45
2023-01-21T08:47:52.100Z,10.82
2023-01-21T08:50:20.481Z,12.77
2023-01-21T08:52:52.793Z,10.88
2023-01-21T08:55:21.400Z,10.52
2023-01-21T08:57:52.126Z,11.55
2023-01-21T09:00:21.493Z,15.48
2023-01-21T09:02:51.762Z,13.98
2023-01-21T09:05:20.364Z,11.23
2023-01-21T09:07:48.732Z,11.65
2023-01-21T09:10:37.490Z,11.10
2023-01-21T09:13:06.556Z,15.98
2023-01-21T09:15:38.956Z,14.38
2023-01-21T09:18:08.949Z,7.32
2023-01-21T09:20:37.323Z,15.13
2023-01-21T09:23:24.296Z,10.00
2023-01-21T09:25:53.223Z,12.07
2023-01-21T09:28:22.687Z,8.88
2023-01-21T09:30:51.152Z,11.75
2023-01-21T09:33:20.863Z,13.45
2023-01-21T09:35:54.216Z,11.27
2023-01-21T09:38:22.572Z,12.02
2023-01-21T09:40:51.156Z,11.10
2023-01-21T09:43:22.778Z,9.57
2023-01-21T09:45:51.976Z,10.43
2023-01-21T09:48:28.276Z,10.60
2023-01-21T09:50:58.155Z,11.25
2023-01-21T09:53:29.551Z,6.32
2023-01-21T09:55:59.312Z,13.02
2023-01-21T09:58:31.728Z,10.75
2023-01-21T10:01:02.957Z,9.98
2023-01-21T10:03:38.347Z,9.63
2023-01-21T10:06:13.723Z,9.23
2023-01-21T10:08:59.705Z,10.70
2023-01-21T10:11:39.355Z,9.35
2023-01-21T10:14:18.809Z,10.20
2023-01-21T10:16:51.439Z,10.55
2023-01-21T10:19:24.956Z,8.88
2023-01-21T10:21:55.867Z,5.88
2023-01-21T10:24:26.126Z,12.65
2023-01-21T10:26:55.567Z,10.82
2023-01-21T10:29:25.767Z,9.27
2023-01-21T10:31:59.387Z,10.25
2023-01-21T10:34:31.230Z,9.50
2023-01-21T10:37:09.413Z,7.10
2023-01-21T10:39:46.070Z,9.88
2023-01-21T10:42:32.875Z,8.90
2023-01-21T10:45:04.240Z,11.85
2023-01-21T10:47:38.526Z,9.02
2023-01-21T10:50:23.348Z,10.65
2023-01-21T10:52:55.573Z,12.70
2023-01-21T10:55:28.629Z,7.45
2023-01-21T10:58:00.268Z,6.25
2023-01-21T11:00:30.941Z,8.27
2023-01-21T11:03:02.128Z,7.90
2023-01-21T11:05:32.293Z,8.07
2023-01-21T11:08:00.897Z,9.15
2023-01-21T11:10:29.252Z,6.65
2023-01-21T11:12:57.944Z,7.05
2023-01-21T11:15:27.227Z,11.77
2023-01-21T11:17:56.695Z,7.60
2023-01-21T11:20:33.386Z,12.20
2023-01-21T11:23:03.358Z,9.27
2023-01-21T11:25:38.634Z,22.95
2023-01-21T11:28:07.301Z,5.45
2023-01-21T11:30:50.705Z,5.88
2023-01-21T11:33:25.561Z,7.82
2023-01-21T11:35:55.954Z,6.80
2023-01-21T11:38:33.121Z,9.82
2023-01-21T11:41:03.896Z,8.00
2023-01-21T11:43:37.077Z,5.43
2023-01-21T11:46:31.032Z,9.18
2023-01-21T11:49:20.162Z,8.77
2023-01-21T11:51:49.858Z,9.43
2023-01-21T11:54:19.745Z,11.43
2023-01-21T11:56:56.560Z,12.23
2023-01-21T11:59:28.554Z,9.30
2023-01-21T12:01:59.232Z,8.40
2023-01-21T12:04:27.865Z,8.65
2023-01-21T12:07:00.498Z,7.70
2023-01-21T12:09:29.438Z,6.55
2023-01-21T12:12:20.541Z,5.43
2023-01-21T12:14:53.441Z,7.95
2023-01-21T12:17:32.940Z,6.70
2023-01-21T12:20:13.152Z,6.18
2023-01-21T12:22:51.158Z,9.52
2023-01-21T12:25:24.321Z,8.93
2023-01-21T12:28:05.969Z,5.70
2023-01-21T12:30:40.426Z,7.00
2023-01-21T12:33:14.116Z,8.07
2023-01-21T12:35:46.375Z,6.13
2023-01-21T12:38:19.483Z,9.35
2023-01-21T12:40:51.979Z,4.78
2023-01-21T12:43:23.195Z,8.15
2023-01-21T12:45:55.092Z,6.90
2023-01-21T12:48:28.233Z,8.23
2023-01-21T12:50:59.285Z,5.93
2023-01-21T12:53:34.224Z,7.20
2023-01-21T12:56:20.600Z,7.18
2023-01-21T12:58:53.686Z,5.30
2023-01-21T13:01:35.062Z,6.10
2023-01-21T13:04:08.094Z,6.07
2023-01-21T13:06:53.291Z,8.05
2023-01-21T13:09:32.484Z,10.05
2023-01-21T13:12:04.134Z,8.48
2023-01-21T13:14:35.452Z,10.23
2023-01-21T13:17:06.441Z,6.85
2023-01-21T13:19:34.717Z,5.63
2023-01-21T13:22:06.329Z,9.75
2023-01-21T13:24:47.510Z,8.50
2023-01-21T13:27:18.270Z,7.60
2023-01-21T13:29:49.100Z,4.43
2023-01-21T13:32:26.682Z,8.35
2023-01-21T13:35:02.090Z,6.68
2023-01-21T13:37:36.174Z,8.95
2023-01-21T13:40:23.369Z,5.90
2023-01-21T13:42:57.382Z,9.10
2023-01-21T13:45:29.140Z,3.58
2023-01-21T13:48:11.801Z,6.32
2023-01-21T13:51:01.059Z,5.93
2023-01-21T13:53:47.460Z,6.75
2023-01-21T13:56:34.912Z,6.70
2023-01-21T13:59:06.109Z,6.82
2023-01-21T14:01:38.868Z,6.28
2023-01-21T14:04:12.589Z,8.30
2023-01-21T14:06:43.838Z,6.10
2023-01-21T14:09:14.899Z,7.88
2023-01-21T14:11:47.514Z,4.20
2023-01-21T14:14:41.186Z,4.30
2023-01-21T14:17:29.339Z,6.65
2023-01-21T14:20:17.593Z,5.20
2023-01-21T14:22:57.936Z,6.82
2023-01-21T14:25:34.718Z,5.32
2023-01-21T14:28:10.050Z,5.97
2023-01-21T14:30:43.157Z,5.22
2023-01-21T14:33:14.337Z,4.35
2023-01-21T14:35:45.451Z,5.40
2023-01-21T14:38:21.048Z,5.55
2023-01-21T14:40:50.596Z,4.88
2023-01-21T14:43:48.070Z,3.95
2023-01-21T14:46:34.118Z,5.10
2023-01-21T14:49:08.209Z,5.80
2023-01-21T14:51:38.229Z,4.10
2023-01-21T14:54:13.293Z,6.25
2023-01-21T14:56:41.867Z,4.38
2023-01-21T14:59:27.257Z,4.00
2023-01-21T15:02:01.520Z,3.85
2023-01-21T15:04:31.961Z,7.50
2023-01-21T15:07:01.871Z,5.40
2023-01-21T15:09:32.759Z,5.80
2023-01-21T15:12:03.195Z,4.60
2023-01-21T15:14:35.631Z,4.57
2023-01-21T15:17:04.468Z,5.97
2023-01-21T15:19:34.482Z,5.18
2023-01-21T15:22:25.419Z,5.85
2023-01-21T15:25:19.348Z,7.97
2023-01-21T15:28:33.409Z,5.70
2023-01-21T15:31:05.776Z,7.35
2023-01-21T15:33:38.559Z,6.32
2023-01-21T15:36:15.289Z,4.68
2023-01-21T15:38:43.698Z,4.10
2023-01-21T15:41:19.859Z,4.90
2023-01-21T15:43:51.972Z,5.25
2023-01-21T15:46:28.046Z,3.40
2023-01-21T15:49:03.782Z,7.78
2023-01-21T15:51:40.860Z,4.85
2023-01-21T15:54:18.833Z,5.35
2023-01-21T15:57:02.157Z,4.43
2023-01-21T15:59:56.442Z,3.97
2023-01-21T16:02:30.131Z,5.50
2023-01-21T16:05:07.870Z,3.65
2023-01-21T16:07:42.487Z,4.97
2023-01-21T16:10:17.483Z,6.88
2023-01-21T16:12:53.044Z,4.38
2023-01-21T16:15:30.090Z,5.55
2023-01-21T16:18:06.990Z,4.82
2023-01-21T16:20:35.588Z,5.72
2023-01-21T16:23:06.165Z,4.70
2023-01-21T16:28:02.504Z,5.13
2023-01-21T16:30:32.382Z,5.28
2023-01-21T16:33:14.888Z,4.60
2023-01-21T16:35:45.013Z,5.95
2023-01-21T16:38:17.469Z,3.97
2023-01-21T16:40:46.165Z,4.28
2023-01-21T16:43:25.095Z,4.18
2023-01-21T16:45:54.656Z,5.65
2023-01-21T16:48:29.519Z,6.77
2023-01-21T16:50:58.242Z,4.50
2023-01-21T16:53:26.844Z,6.00
2023-01-21T16:55:56.770Z,6.05
2023-01-21T16:58:30.235Z,6.32
2023-01-21T17:01:00.707Z,7.00
2023-01-21T17:06:00.476Z,5.70
2023-01-21T17:08:29.119Z,4.15
2023-01-21T17:10:59.650Z,5.10
2023-01-21T17:15:58.480Z,4.97
2023-01-21T17:18:31.076Z,6.63
2023-01-21T17:21:04.897Z,4.65
2023-01-21T17:23:35.519Z,5.72
2023-01-21T17:26:05.576Z,6.43
2023-01-21T17:28:39.655Z,7.43
2023-01-21T17:31:13.254Z,5.30
2023-01-21T17:33:43.606Z,6.63
2023-01-21T17:36:13.876Z,6.25
2023-01-21T17:38:44.127Z,7.55
2023-01-21T17:41:24.736Z,5.75
2023-01-21T17:46:22.963Z,7.03
2023-01-21T17:48:54.678Z,6.43
2023-01-21T17:51:24.924Z,7.97
2023-01-21T17:53:56.429Z,6.18
2023-01-21T17:56:41.131Z,5.82
2023-01-21T17:59:38.757Z,7.20
2023-01-21T18:02:11.729Z,10.15
2023-01-21T18:04:41.886Z,7.28
2023-01-21T18:07:16.846Z,5.95
2023-01-21T18:09:45.190Z,6.50
2023-01-21T18:12:13.555Z,11.30
2023-01-21T18:14:43.419Z,8.15
2023-01-21T18:17:16.435Z,8.35
2023-01-21T18:19:46.180Z,9.88
2023-01-21T18:22:23.664Z,8.35
2023-01-21T18:24:52.480Z,8.10
2023-01-21T18:27:25.731Z,6.63
2023-01-21T18:29:54.899Z,7.72
2023-01-21T18:32:23.233Z,6.53
2023-01-21T18:34:52.944Z,5.90
2023-01-21T18:37:21.640Z,8.00
2023-01-21T18:39:49.991Z,8.52
2023-01-21T18:42:19.610Z,6.15
2023-01-21T18:44:47.871Z,7.43
2023-01-21T18:47:18.961Z,10.18
2023-01-21T18:49:49.516Z,7.60
2023-01-21T18:52:20.655Z,8.25
2023-01-21T18:54:49.067Z,7.65
2023-01-21T18:57:20.143Z,8.35
2023-01-21T18:59:48.521Z,6.13
2023-01-21T19:02:18.890Z,8.80
2023-01-21T19:04:47.612Z,6.32
2023-01-21T19:07:16.401Z,8.00
2023-01-21T19:09:46.475Z,7.53
2023-01-21T19:12:16.505Z,7.47
2023-01-21T19:14:44.787Z,5.57
2023-01-21T19:17:13.850Z,7.78
2023-01-21T19:19:42.180Z,5.70
2023-01-21T19:22:12.514Z,6.07
2023-01-21T19:24:40.866Z,5.00
2023-01-21T19:27:15.785Z,8.32
2023-01-21T19:29:44.142Z,7.75
2023-01-21T19:32:14.747Z,9.30
2023-01-21T19:34:43.658Z,10.23
2023-01-21T19:37:14.249Z,8.70
2023-01-21T19:42:12.494Z,5.30
2023-01-21T19:44:40.783Z,8.43
2023-01-21T19:47:17.280Z,8.80
2023-01-21T19:49:45.666Z,9.23
2023-01-21T19:52:14.940Z,6.00
2023-01-21T19:54:43.243Z,7.57
2023-01-21T19:57:14.596Z,7.78
2023-01-21T19:59:43.148Z,10.43
2023-01-21T20:02:12.146Z,7.03
2023-01-21T20:04:40.573Z,7.22
2023-01-21T20:07:11.368Z,9.85
2023-01-21T20:09:39.602Z,8.68
2023-01-21T20:12:09.691Z,8.98
2023-01-21T20:14:39.356Z,6.15
2023-01-21T20:17:07.700Z,4.47
2023-01-21T20:19:35.956Z,9.73
2023-01-21T20:22:04.288Z,10.10
2023-01-21T20:24:33.924Z,7.72
2023-01-21T20:27:05.114Z,6.13
2023-01-21T20:29:35.992Z,6.88
2023-01-21T20:32:07.247Z,8.30
2023-01-21T20:34:37.379Z,8.98
2023-01-21T20:37:05.705Z,7.10
2023-01-21T20:39:34.003Z,11.30
2023-01-21T20:42:02.446Z,7.63
2023-01-21T20:44:30.678Z,10.23
2023-01-21T20:46:59.784Z,10.07
2023-01-21T20:49:30.757Z,12.48
2023-01-21T20:51:59.041Z,11.50
2023-01-21T20:54:27.287Z,11.77
2023-01-21T20:56:55.551Z,8.68
2023-01-21T20:59:23.844Z,9.07
2023-01-21T21:01:55.393Z,6.97
2023-01-21T21:04:24.890Z,12.00
2023-01-21T21:06:54.672Z,11.27
2023-01-21T21:09:22.978Z,11.53
2023-01-21T21:11:51.243Z,12.77
2023-01-21T21:14:20.672Z,11.77
2023-01-21T21:16:49.490Z,12.45
2023-01-21T21:19:17.746Z,11.90
2023-01-21T21:21:46.547Z,12.80
2023-01-21T21:24:16.236Z,11.80
2023-01-21T21:26:45.929Z,10.95
2023-01-21T21:29:14.430Z,11.30
2023-01-21T21:31:42.707Z,10.52
2023-01-21T21:34:11.072Z,11.02
2023-01-21T21:36:42.066Z,12.23
2023-01-21T21:39:10.324Z,11.00
2023-01-21T21:41:58.064Z,11.07
2023-01-21T21:44:26.464Z,11.00
2023-01-21T21:47:12.426Z,12.48
2023-01-21T21:49:40.758Z,3.67
2023-01-21T21:52:09.040Z,11.57
2023-01-21T21:54:37.293Z,11.55
2023-01-21T21:57:07.042Z,10.68
2023-01-21T21:59:35.293Z,11.38
2023-01-21T22:02:06.437Z,11.50
2023-01-21T22:04:34.837Z,11.38
2023-01-21T22:07:03.156Z,11.48
2023-01-21T22:09:31.548Z,9.88
2023-01-21T22:11:59.913Z,12.10
2023-01-21T22:14:29.733Z,11.50
2023-01-21T22:16:58.167Z,11.20
2023-01-21T22:19:26.613Z,13.32
2023-01-21T22:21:54.977Z,10.63
2023-01-21T22:24:23.567Z,11.18
2023-01-21T22:26:51.934Z,10.70
2023-01-21T22:29:20.269Z,10.73
2023-01-21T22:31:50.139Z,10.40
2023-01-21T22:34:18.526Z,11.60
2023-01-21T22:36:48.208Z,11.30
2023-01-21T22:39:16.720Z,8.25
2023-01-21T22:41:45.065Z,10.60
2023-01-21T22:44:13.472Z,10.88
2023-01-21T22:46:41.807Z,12.25
2023-01-21T22:49:12.906Z,10.65
2023-01-21T22:51:41.244Z,11.88
2023-01-21T22:54:09.640Z,11.55
2023-01-21T22:56:51.603Z,10.82
2023-01-21T22:59:20.960Z,12.77
2023-01-21T23:01:51.156Z,10.32
2023-01-21T23:04:20.991Z,12.00
2023-01-21T23:06:54.690Z,11.70
2023-01-21T23:09:23.092Z,12.65
2023-01-21T23:11:52.696Z,11.43
2023-01-21T23:14:21.475Z,12.73
2023-01-21T23:16:49.835Z,12.18
2023-01-21T23:19:18.148Z,12.20
2023-01-21T23:21:47.842Z,11.50
2023-01-21T23:24:16.217Z,12.20
2023-01-21T23:26:45.010Z,12.25
2023-01-21T23:29:13.328Z,11.50
2023-01-21T23:31:41.720Z,11.40
2023-01-21T23:34:13.270Z,11.88
2023-01-21T23:36:41.723Z,12.70
2023-01-21T23:39:12.209Z,12.88
2023-01-21T23:41:40.502Z,10.48
2023-01-21T23:44:10.689Z,10.88
2023-01-21T23:46:39.147Z,12.38
2023-01-21T23:49:07.991Z,12.15
2023-01-21T23:51:36.667Z,10.40
2023-01-21T23:54:05.254Z,10.68
2023-01-21T23:56:35.106Z,12.95
2023-01-21T23:59:03.436Z,12.45
